createdAt,value
2018-01-12T00:02:21.296Z,40.30
2018-01-12T00:04:48.907Z,38.17
2018-01-12T00:07:16.493Z,39.53
2018-01-12T00:09:44.822Z,37.77
2018-01-12T00:12:12.378Z,38.73
2018-01-12T00:14:39.981Z,37.23
2018-01-12T00:17:08.343Z,38.33
2018-01-12T00:19:35.925Z,36.90
2018-01-12T00:22:04.258Z,37.20
2018-01-12T00:24:31.841Z,36.37
2018-01-12T00:26:59.401Z,37.00
2018-01-12T00:29:26.996Z,39.23
2018-01-12T00:31:55.334Z,39.50
2018-01-12T00:34:22.925Z,38.60
2018-01-12T00:36:51.261Z,37.23
2018-01-12T00:39:18.837Z,38.90
2018-01-12T00:41:46.400Z,36.60
2018-01-12T00:44:14.080Z,35.90
2018-01-12T00:46:41.629Z,38.57
2018-01-12T00:49:09.193Z,37.37
2018-01-12T00:51:36.764Z,37.10
2018-01-12T00:54:05.102Z,41.30
2018-01-12T00:56:32.678Z,40.80
2018-01-12T00:59:00.237Z,41.00
2018-01-12T01:01:27.920Z,40.27
2018-01-12T01:03:55.478Z,38.53
2018-01-12T01:06:23.049Z,41.40
2018-01-12T01:08:51.397Z,39.23
2018-01-12T01:11:18.968Z,39.23
2018-01-12T01:13:47.395Z,37.83
2018-01-12T01:16:15.709Z,39.67
2018-01-12T01:18:43.294Z,38.50
2018-01-12T01:21:10.848Z,40.73
2018-01-12T01:23:38.432Z,39.20
2018-01-12T01:26:06.753Z,38.27
2018-01-12T01:28:35.313Z,39.83
2018-01-12T01:31:02.887Z,37.47
2018-01-12T01:33:30.451Z,39.90
2018-01-12T01:35:58.037Z,39.63
2018-01-12T01:38:25.765Z,39.67
2018-01-12T01:40:53.357Z,38.87
2018-01-12T01:43:20.921Z,38.60
2018-01-12T01:45:48.501Z,38.07
2018-01-12T01:48:16.085Z,40.30
2018-01-12T01:50:44.434Z,39.47
2018-01-12T01:53:11.981Z,39.20
2018-01-12T01:55:39.622Z,40.17
2018-01-12T01:58:07.167Z,40.17
2018-01-12T02:00:34.750Z,37.00
2018-01-12T02:03:02.316Z,37.40
2018-01-12T02:05:29.897Z,40.40
2018-01-12T02:07:57.449Z,39.30
2018-01-12T02:10:25.042Z,41.07
2018-01-12T02:12:52.597Z,41.00
2018-01-12T02:15:20.174Z,38.67
2018-01-12T02:17:48.650Z,41.10
2018-01-12T02:20:16.977Z,39.37
2018-01-12T02:22:45.324Z,38.03
2018-01-12T02:25:12.909Z,39.00
2018-01-12T02:27:40.480Z,37.90
2018-01-12T02:30:08.161Z,39.43
2018-01-12T02:32:35.768Z,37.50
2018-01-12T02:35:04.116Z,39.40
2018-01-12T02:37:31.805Z,39.93
2018-01-12T02:40:00.157Z,40.87
2018-01-12T02:42:27.720Z,39.77
2018-01-12T02:44:55.314Z,39.83
2018-01-12T02:47:23.656Z,41.60
2018-01-12T02:49:51.278Z,39.20
2018-01-12T02:52:19.619Z,40.50
2018-01-12T02:54:47.976Z,37.13
2018-01-12T02:57:15.550Z,38.43
2018-01-12T02:59:43.137Z,39.40
2018-01-12T03:02:10.716Z,42.00
2018-01-12T03:04:38.329Z,39.80
2018-01-12T03:07:06.012Z,37.57
2018-01-12T03:09:34.349Z,38.23
2018-01-12T03:12:01.930Z,39.13
2018-01-12T03:14:29.486Z,39.17
2018-01-12T03:16:57.146Z,39.10
2018-01-12T03:19:24.721Z,38.70
2018-01-12T03:21:52.371Z,38.13
2018-01-12T03:24:19.923Z,37.30
2018-01-12T03:26:47.511Z,37.93
2018-01-12T03:29:15.065Z,37.30
2018-01-12T03:31:42.649Z,37.03
2018-01-12T03:34:10.229Z,35.33
2018-01-12T03:36:37.812Z,37.67
2018-01-12T03:39:05.390Z,35.10
2018-01-12T03:41:32.962Z,36.40
2018-01-12T03:44:00.526Z,38.03
2018-01-12T03:46:28.125Z,38.43
2018-01-12T03:48:55.688Z,37.80
2018-01-12T03:51:23.282Z,39.37
2018-01-12T03:53:50.860Z,37.60
2018-01-12T03:56:18.435Z,38.37
2018-01-12T03:58:45.992Z,38.63
2018-01-12T04:01:13.606Z,40.77
2018-01-12T04:03:41.157Z,39.73
2018-01-12T04:06:08.747Z,41.83
2018-01-12T04:08:36.317Z,42.23
2018-01-12T04:11:03.910Z,40.17
2018-01-12T04:13:32.289Z,39.10
2018-01-12T04:16:00.617Z,40.30
2018-01-12T04:18:28.201Z,41.33
2018-01-12T04:20:55.771Z,42.50
2018-01-12T04:23:23.349Z,41.73
2018-01-12T04:25:50.965Z,44.50
2018-01-12T04:28:18.545Z,44.20
2018-01-12T04:30:46.129Z,44.90
2018-01-12T04:33:13.672Z,40.83
2018-01-12T04:35:41.249Z,42.23
2018-01-12T04:38:08.820Z,47.10
2018-01-12T04:40:37.178Z,41.70
2018-01-12T04:43:04.900Z,42.13
2018-01-12T04:45:33.334Z,44.17
2018-01-12T04:48:00.905Z,41.30
2018-01-12T04:50:29.246Z,40.37
2018-01-12T04:52:56.848Z,39.97
2018-01-12T04:55:25.225Z,44.20
2018-01-12T04:57:53.597Z,45.07
2018-01-12T05:00:21.945Z,42.17
2018-01-12T05:02:49.511Z,45.70
2018-01-12T05:05:17.087Z,44.57
2018-01-12T05:07:44.678Z,45.13
2018-01-12T05:10:13.028Z,44.70
2018-01-12T05:12:40.624Z,42.30
2018-01-12T05:15:08.250Z,49.20
2018-01-12T05:17:35.835Z,44.50
2018-01-12T05:20:04.187Z,46.90
2018-01-12T05:22:31.792Z,49.67
2018-01-12T05:24:59.398Z,45.70
2018-01-12T05:27:26.969Z,47.13
2018-01-12T05:29:54.601Z,48.90
2018-01-12T05:32:22.163Z,45.70
2018-01-12T05:34:49.764Z,44.93
2018-01-12T05:37:17.337Z,49.60
2018-01-12T05:39:45.683Z,46.33
2018-01-12T05:42:13.254Z,47.03
2018-01-12T05:44:41.027Z,49.93
2018-01-12T05:47:08.592Z,47.47
2018-01-12T05:49:36.150Z,42.13
2018-01-12T05:52:03.713Z,47.40
2018-01-12T05:54:32.959Z,46.13
2018-01-12T05:57:00.527Z,46.53
2018-01-12T05:59:28.123Z,44.87
2018-01-12T06:02:07.593Z,43.80
2018-01-12T06:04:47.697Z,43.50
2018-01-12T06:07:15.346Z,46.93
2018-01-12T06:09:42.941Z,48.00
2018-01-12T06:12:10.569Z,47.83
2018-01-12T06:14:38.374Z,48.47
2018-01-12T06:17:05.954Z,46.20
2018-01-12T06:19:34.440Z,46.70
2018-01-12T06:22:02.801Z,44.43
2018-01-12T06:24:30.337Z,44.03
2018-01-12T06:26:57.914Z,45.10
2018-01-12T06:29:25.505Z,42.53
2018-01-12T06:31:53.833Z,44.27
2018-01-12T06:34:21.433Z,46.97
2018-01-12T06:36:49.832Z,43.53
2018-01-12T06:39:17.426Z,45.37
2018-01-12T06:41:45.028Z,46.67
2018-01-12T06:44:12.587Z,47.53
2018-01-12T06:46:40.231Z,44.30
2018-01-12T06:49:07.816Z,43.50
2018-01-12T06:51:36.145Z,42.90
2018-01-12T06:54:03.710Z,43.00
2018-01-12T06:56:31.366Z,44.60
2018-01-12T06:58:58.946Z,44.73
2018-01-12T07:01:26.509Z,44.90
2018-01-12T07:03:54.120Z,45.93
2018-01-12T07:06:22.488Z,44.87
2018-01-12T07:08:50.028Z,42.87
2018-01-12T07:11:17.579Z,43.00
2018-01-12T07:13:46.002Z,42.23
2018-01-12T07:16:14.329Z,43.87
2018-01-12T07:18:41.918Z,43.20
2018-01-12T07:21:21.477Z,42.97
2018-01-12T07:23:49.818Z,43.20
2018-01-12T07:26:17.372Z,43.13
2018-01-12T07:28:45.680Z,42.67
2018-01-12T07:31:14.030Z,45.77
2018-01-12T07:33:42.596Z,42.37
2018-01-12T07:36:10.166Z,45.40
2018-01-12T07:38:37.741Z,44.40
2018-01-12T07:41:05.350Z,40.37
2018-01-12T07:43:33.683Z,45.33
2018-01-12T07:46:01.254Z,45.17
2018-01-12T07:48:28.833Z,42.60
2018-01-12T07:50:57.192Z,44.50
2018-01-12T07:53:24.769Z,44.50
2018-01-12T07:55:52.353Z,45.97
2018-01-12T07:58:19.915Z,44.17
2018-01-12T08:00:53.079Z,43.83
2018-01-12T08:03:21.438Z,40.10
2018-01-12T08:05:48.998Z,44.13
2018-01-12T08:08:16.578Z,42.03
2018-01-12T08:10:44.148Z,42.40
2018-01-12T08:13:12.493Z,44.60
2018-01-12T08:15:40.829Z,41.40
2018-01-12T08:18:08.425Z,42.93
2018-01-12T08:20:36.000Z,41.50
2018-01-12T08:32:48.640Z,40.63
2018-01-12T08:35:16.215Z,44.43
2018-01-12T08:37:43.806Z,44.10
2018-01-12T08:40:11.382Z,43.93
2018-01-12T08:42:38.944Z,45.67
2018-01-12T08:45:07.286Z,45.70
2018-01-12T08:47:34.821Z,48.00
2018-01-12T08:50:02.394Z,48.10
2018-01-12T08:52:30.005Z,44.60
2018-01-12T08:54:58.361Z,44.43
2018-01-12T08:57:25.950Z,42.63
2018-01-12T08:59:54.303Z,43.00
2018-01-12T09:02:21.990Z,44.93
2018-01-12T09:04:50.324Z,46.07
2018-01-12T09:07:17.958Z,44.30
2018-01-12T09:09:45.546Z,44.20
2018-01-12T09:12:13.138Z,46.10
2018-01-12T09:14:49.530Z,43.93
2018-01-12T09:17:29.480Z,44.20
2018-01-12T09:20:09.465Z,45.57
2018-01-12T09:22:45.926Z,45.17
2018-01-12T09:25:23.438Z,43.10
2018-01-12T09:27:51.023Z,43.63
2018-01-12T09:30:18.582Z,45.40
2018-01-12T09:32:49.016Z,43.30
2018-01-12T09:35:16.591Z,55.13
2018-01-12T09:37:44.227Z,44.53
2018-01-12T09:43:05.398Z,47.77
2018-01-12T09:45:33.755Z,47.73
2018-01-12T09:48:15.013Z,42.13
2018-01-12T09:50:42.593Z,43.27
2018-01-12T09:53:10.213Z,42.77
2018-01-12T09:55:37.773Z,45.00
2018-01-12T09:58:05.348Z,43.70
2018-01-12T10:03:36.314Z,42.87
2018-01-12T10:06:03.918Z,44.60
2018-01-12T10:08:32.404Z,40.17
2018-01-12T10:11:00.733Z,41.93
2018-01-12T10:13:28.320Z,42.90
2018-01-12T10:15:55.886Z,43.17
2018-01-12T10:18:35.296Z,44.10
2018-01-12T10:23:59.547Z,46.00
2018-01-12T10:26:27.877Z,45.57
2018-01-12T10:29:06.373Z,44.33
2018-01-12T10:31:45.697Z,43.80
2018-01-12T10:34:13.292Z,40.57
2018-01-12T10:37:01.729Z,40.83
2018-01-12T10:39:29.340Z,40.37
2018-01-12T10:42:02.913Z,42.60
2018-01-12T10:44:30.586Z,42.30
2018-01-12T10:47:15.864Z,44.77
2018-01-12T10:49:55.195Z,43.57
2018-01-12T10:52:31.663Z,71.13
2018-01-12T10:54:59.246Z,39.80
2018-01-12T10:57:26.929Z,43.47
2018-01-12T10:59:55.321Z,43.80
2018-01-12T11:02:22.861Z,40.37
2018-01-12T11:04:50.456Z,44.57
2018-01-12T11:07:18.021Z,43.97
2018-01-12T11:09:45.599Z,42.17
2018-01-12T11:12:13.176Z,43.67
2018-01-12T11:14:40.774Z,42.67
2018-01-12T11:17:09.125Z,43.87
2018-01-12T11:19:36.699Z,43.30
2018-01-12T11:22:04.281Z,46.30
2018-01-12T11:24:31.855Z,42.27
2018-01-12T11:26:59.436Z,43.70
2018-01-12T11:29:27.005Z,44.03
2018-01-12T11:31:54.627Z,45.17
2018-01-12T11:34:22.183Z,44.03
2018-01-12T11:36:50.514Z,45.67
2018-01-12T11:39:18.108Z,43.57
2018-01-12T11:41:45.672Z,45.90
2018-01-12T11:44:14.029Z,46.10
2018-01-12T11:46:41.588Z,44.17
2018-01-12T11:49:09.177Z,45.63
2018-01-12T11:51:37.513Z,45.47
2018-01-12T11:54:05.096Z,43.87
2018-01-12T11:56:32.649Z,46.30
2018-01-12T11:59:00.222Z,44.70
2018-01-12T12:01:27.813Z,46.03
2018-01-12T12:03:55.388Z,46.47
2018-01-12T12:06:22.949Z,45.20
2018-01-12T12:08:51.332Z,44.30
2018-01-12T12:11:18.905Z,45.60
2018-01-12T12:13:47.246Z,44.20
2018-01-12T12:16:14.855Z,46.00
2018-01-12T12:18:42.463Z,44.20
2018-01-12T12:21:10.814Z,44.07
2018-01-12T12:23:38.383Z,47.67
2018-01-12T12:26:05.954Z,50.90
2018-01-12T12:28:34.276Z,48.57
2018-01-12T12:31:01.877Z,49.93
2018-01-12T12:33:29.469Z,49.13
2018-01-12T12:35:57.813Z,51.13
2018-01-12T12:38:25.410Z,50.43
2018-01-12T12:41:14.062Z,116.37
2018-01-12T12:43:42.517Z,53.40
2018-01-12T12:46:10.082Z,53.60
2018-01-12T12:48:37.723Z,49.67
2018-01-12T12:51:05.316Z,54.80
2018-01-12T12:53:32.882Z,56.37
2018-01-12T12:56:01.218Z,49.80
2018-01-12T12:58:28.821Z,58.10
2018-01-12T13:00:57.149Z,54.67
2018-01-12T13:03:24.739Z,46.70
2018-01-12T13:05:52.327Z,51.23
2018-01-12T13:08:20.681Z,51.20
2018-01-12T13:10:48.348Z,50.90
2018-01-12T13:13:15.909Z,51.47
2018-01-12T13:15:43.541Z,56.70
2018-01-12T13:18:11.134Z,55.80
2018-01-12T13:20:38.745Z,49.10
2018-01-12T13:23:06.314Z,55.47
2018-01-12T13:25:34.823Z,58.10
2018-01-12T13:28:02.376Z,50.37
2018-01-12T13:30:29.947Z,47.73
2018-01-12T13:32:57.533Z,49.90
2018-01-12T13:35:25.872Z,46.93
2018-01-12T13:37:53.412Z,50.23
2018-01-12T13:40:20.997Z,50.07
2018-01-12T13:42:48.570Z,47.17
2018-01-12T13:47:50.081Z,50.17
2018-01-12T13:50:17.693Z,52.13
2018-01-12T13:52:45.265Z,46.90
2018-01-12T13:55:12.843Z,47.60
2018-01-12T13:57:40.439Z,51.03
2018-01-12T14:00:08.043Z,48.97
2018-01-12T14:02:35.610Z,46.33
2018-01-12T14:05:03.214Z,45.87
2018-01-12T14:07:30.849Z,43.77
2018-01-12T14:09:59.166Z,46.30
2018-01-12T14:12:26.755Z,48.20
2018-01-12T14:14:54.321Z,48.83
2018-01-12T14:17:22.687Z,47.30
2018-01-12T14:19:50.389Z,49.40
2018-01-12T14:22:17.965Z,46.20
2018-01-12T14:24:46.314Z,47.90
2018-01-12T14:27:13.940Z,48.13
2018-01-12T14:29:41.522Z,48.73
2018-01-12T14:32:09.142Z,50.87
2018-01-12T14:34:36.730Z,45.73
2018-01-12T14:37:05.053Z,49.00
2018-01-12T14:39:32.629Z,51.10
2018-01-12T14:42:00.989Z,47.10
2018-01-12T14:44:28.592Z,48.10
2018-01-12T14:46:56.211Z,49.27
2018-01-12T14:49:23.798Z,49.57
2018-01-12T14:51:52.155Z,49.93
2018-01-12T14:54:19.768Z,49.30
2018-01-12T14:56:47.357Z,54.27
2018-01-12T14:59:14.981Z,52.80
2018-01-12T15:01:42.564Z,55.63
2018-01-12T15:04:10.159Z,54.47
2018-01-12T15:06:37.765Z,48.97
2018-01-12T15:09:06.153Z,49.20
2018-01-12T15:11:33.747Z,51.60
2018-01-12T15:14:01.320Z,50.37
2018-01-12T15:16:28.896Z,54.87
2018-01-12T15:18:57.248Z,53.40
2018-01-12T15:21:24.948Z,58.60
2018-01-12T15:23:53.301Z,53.43
2018-01-12T15:26:20.873Z,55.27
2018-01-12T15:28:49.201Z,58.43
2018-01-12T15:31:16.852Z,53.50
2018-01-12T15:33:45.455Z,55.30
2018-01-12T15:36:13.042Z,49.73
2018-01-12T15:38:40.637Z,49.77
2018-01-12T15:41:09.013Z,52.30
2018-01-12T15:43:37.358Z,51.40
2018-01-12T15:46:04.951Z,49.67
2018-01-12T15:48:33.298Z,51.10
2018-01-12T15:51:00.969Z,51.37
2018-01-12T15:53:28.526Z,51.63
2018-01-12T15:55:56.114Z,47.90
2018-01-12T15:58:24.487Z,48.20
2018-01-12T16:00:52.820Z,53.70
2018-01-12T16:03:20.376Z,53.57
2018-01-12T16:05:47.966Z,56.67
2018-01-12T16:08:15.541Z,54.43
2018-01-12T16:10:43.120Z,53.00
2018-01-12T16:13:11.498Z,57.05
2018-01-12T16:15:39.064Z,52.80
2018-01-12T16:18:07.401Z,56.30
2018-01-12T16:20:35.022Z,46.73
2018-01-12T16:23:02.631Z,49.10
2018-01-12T16:25:30.221Z,46.83
2018-01-12T16:27:58.553Z,44.60
2018-01-12T16:30:26.129Z,42.23
2018-01-12T16:32:53.696Z,43.70
2018-01-12T16:35:21.279Z,45.87
2018-01-12T16:37:49.644Z,47.37
2018-01-12T16:40:17.241Z,47.50
2018-01-12T16:42:44.863Z,43.90
2018-01-12T16:45:12.474Z,45.97
2018-01-12T16:47:40.078Z,45.47
2018-01-12T16:50:07.669Z,45.50
2018-01-12T16:52:36.021Z,45.83
2018-01-12T16:55:03.633Z,42.73
2018-01-12T16:57:31.237Z,41.97
2018-01-12T16:59:58.890Z,37.60
2018-01-12T17:15:26.519Z,38.47
2018-01-12T17:17:54.094Z,50.37
2018-01-12T17:20:21.655Z,48.50
2018-01-12T17:22:49.997Z,46.47
2018-01-12T17:25:17.611Z,46.70
2018-01-12T17:27:45.205Z,44.10
2018-01-12T17:30:13.542Z,51.60
2018-01-12T17:32:41.208Z,50.90
2018-01-12T17:35:08.802Z,47.47
2018-01-12T17:37:37.170Z,44.83
2018-01-12T17:40:04.748Z,47.90
2018-01-12T17:42:33.098Z,44.43
2018-01-12T17:45:00.738Z,45.23
2018-01-12T17:47:28.420Z,48.17
2018-01-12T17:49:56.013Z,45.20
2018-01-12T17:52:24.380Z,46.93
2018-01-12T17:54:52.206Z,42.57
2018-01-12T17:57:20.545Z,42.00
2018-01-12T17:59:49.257Z,41.87
2018-01-12T18:02:16.856Z,42.67
2018-01-12T18:04:44.610Z,43.83
2018-01-12T18:07:12.190Z,42.87
2018-01-12T18:09:39.777Z,49.87
2018-01-12T18:12:08.140Z,43.70
2018-01-12T18:14:35.729Z,43.03
2018-01-12T18:17:03.394Z,42.40
2018-01-12T18:19:31.877Z,45.40
2018-01-12T18:21:59.477Z,47.80
2018-01-12T18:24:27.073Z,46.43
2018-01-12T18:26:54.637Z,51.00
2018-01-12T18:29:22.216Z,48.87
2018-01-12T18:31:50.568Z,49.47
2018-01-12T18:34:18.133Z,47.97
2018-01-12T18:36:48.526Z,51.10
2018-01-12T18:39:16.257Z,51.90
2018-01-12T18:41:44.658Z,50.50
2018-01-12T18:44:12.250Z,50.63
2018-01-12T18:46:39.849Z,50.43
2018-01-12T18:49:08.188Z,53.77
2018-01-12T18:51:35.759Z,51.53
2018-01-12T18:54:03.362Z,52.50
2018-01-12T18:56:30.961Z,48.50
2018-01-12T18:58:59.569Z,52.00
2018-01-12T19:01:27.174Z,54.37
2018-01-12T19:03:54.771Z,55.67
2018-01-12T19:06:22.334Z,55.37
2018-01-12T19:08:49.996Z,53.50
2018-01-12T19:11:17.570Z,52.27
2018-01-12T19:13:45.158Z,53.10
2018-01-12T19:16:13.572Z,52.43
2018-01-12T19:18:41.186Z,52.80
2018-01-12T19:21:08.793Z,52.00
2018-01-12T19:23:36.365Z,50.50
2018-01-12T19:26:03.949Z,52.20
2018-01-12T19:28:31.551Z,50.63
2018-01-12T19:30:59.906Z,49.50
2018-01-12T19:33:27.501Z,51.07
2018-01-12T19:35:55.897Z,54.50
2018-01-12T19:38:23.506Z,51.07
2018-01-12T19:40:51.097Z,47.10
2018-01-12T19:43:18.718Z,47.63
2018-01-12T19:45:46.360Z,49.10
2018-01-12T19:48:14.698Z,48.40
2018-01-12T19:50:43.073Z,50.60
2018-01-12T19:53:11.439Z,50.73
2018-01-12T19:55:39.004Z,50.60
2018-01-12T19:58:06.657Z,49.30
2018-01-12T20:00:34.215Z,49.20
2018-01-12T20:03:01.857Z,50.90
2018-01-12T20:05:29.452Z,48.27
2018-01-12T20:07:57.819Z,47.60
2018-01-12T20:10:25.685Z,47.27
2018-01-12T20:12:53.317Z,48.27
2018-01-12T20:15:20.927Z,49.20
2018-01-12T20:17:49.547Z,46.83
2018-01-12T20:20:17.427Z,44.37
2018-01-12T20:22:45.279Z,43.83
2018-01-12T20:25:13.315Z,45.20
2018-01-12T20:27:41.198Z,46.50
2018-01-12T20:30:08.890Z,44.60
2018-01-12T20:32:36.775Z,46.17
2018-01-12T20:35:05.425Z,44.13
2018-01-12T20:37:33.306Z,45.27
2018-01-12T20:40:01.199Z,43.77
2018-01-12T20:45:04.220Z,41.53
2018-01-12T20:47:31.869Z,41.13
2018-01-12T20:49:59.432Z,42.93
2018-01-12T20:52:27.063Z,39.87
2018-01-12T20:54:54.657Z,44.80
2018-01-12T20:57:22.310Z,43.40
2018-01-12T20:59:49.939Z,42.97
2018-01-12T21:02:17.489Z,43.03
2018-01-12T21:04:45.063Z,45.23
2018-01-12T21:07:12.691Z,43.93
2018-01-12T21:09:40.283Z,46.13
2018-01-12T21:12:07.894Z,43.37
2018-01-12T21:14:35.481Z,44.33
2018-01-12T21:17:03.866Z,43.33
2018-01-12T21:19:32.280Z,45.80
2018-01-12T21:21:59.842Z,41.10
2018-01-12T21:24:27.449Z,43.10
2018-01-12T21:26:55.043Z,40.80
2018-01-12T21:29:22.649Z,42.77
2018-01-12T21:31:50.252Z,41.80
2018-01-12T21:34:18.637Z,40.13
2018-01-12T21:36:46.968Z,39.57
2018-01-12T21:39:14.619Z,40.53
2018-01-12T21:41:42.239Z,40.20
2018-01-12T21:44:10.606Z,39.50
2018-01-12T21:46:38.958Z,41.53
2018-01-12T21:49:06.522Z,38.60
2018-01-12T21:51:34.158Z,40.97
2018-01-12T21:54:01.781Z,42.30
2018-01-12T21:56:30.116Z,39.00
2018-01-12T21:58:57.694Z,37.67
2018-01-12T22:01:25.307Z,41.73
2018-01-12T22:03:52.937Z,41.17
2018-01-12T22:06:20.522Z,42.60
2018-01-12T22:08:48.099Z,41.30
2018-01-12T22:11:15.745Z,38.80
2018-01-12T22:13:44.333Z,38.60
2018-01-12T22:16:11.906Z,38.57
2018-01-12T22:18:39.530Z,39.70
2018-01-12T22:21:07.986Z,37.73
2018-01-12T22:23:35.637Z,40.07
2018-01-12T22:26:03.339Z,39.57
2018-01-12T22:28:31.689Z,40.87
2018-01-12T22:30:59.318Z,39.40
2018-01-12T22:33:26.902Z,37.03
2018-01-12T22:35:54.599Z,39.93
2018-01-12T22:38:22.265Z,39.43
2018-01-12T22:40:49.888Z,38.33
2018-01-12T22:43:17.473Z,39.40
2018-01-12T22:45:45.081Z,42.93
2018-01-12T22:48:12.697Z,39.30
2018-01-12T22:50:40.278Z,37.73
2018-01-12T22:53:08.631Z,39.67
2018-01-12T22:55:36.207Z,39.63
2018-01-12T22:58:04.581Z,38.10
2018-01-12T23:00:32.179Z,38.50
2018-01-12T23:03:00.650Z,41.37
2018-01-12T23:05:28.224Z,36.83
2018-01-12T23:07:55.768Z,39.37
2018-01-12T23:10:23.360Z,39.53
2018-01-12T23:12:50.972Z,37.57
2018-01-12T23:15:18.550Z,40.17
2018-01-12T23:17:46.210Z,40.80
2018-01-12T23:20:14.598Z,40.00
2018-01-12T23:22:42.995Z,41.50
2018-01-12T23:25:10.729Z,41.40
2018-01-12T23:27:39.064Z,43.03
2018-01-12T23:30:06.698Z,40.30
2018-01-12T23:32:34.417Z,39.80
2018-01-12T23:35:02.113Z,38.57
2018-01-12T23:37:30.456Z,38.07
2018-01-12T23:39:58.037Z,40.20
2018-01-12T23:42:26.432Z,42.73
2018-01-12T23:44:54.753Z,43.00
2018-01-12T23:47:22.372Z,45.30
2018-01-12T23:49:49.981Z,47.60
2018-01-12T23:52:17.643Z,43.37
2018-01-12T23:54:45.222Z,42.80
2018-01-12T23:57:12.817Z,43.40
2018-01-12T23:59:40.419Z,43.00
